createdAt,value
2019-02-23T00:01:06.715Z,2.60
2019-02-23T00:03:36.439Z,2.60
2019-02-23T00:06:06.383Z,2.60
2019-02-23T00:08:36.167Z,2.50
2019-02-23T00:11:05.862Z,2.60
2019-02-23T00:13:35.599Z,2.50
2019-02-23T00:16:05.275Z,2.50
2019-02-23T00:18:35.231Z,2.50
2019-02-23T00:21:04.949Z,2.50
2019-02-23T00:23:35.605Z,2.50
2019-02-23T00:26:05.199Z,2.50
2019-02-23T00:28:34.767Z,2.40
2019-02-23T00:31:04.335Z,2.40
2019-02-23T00:33:33.967Z,2.40
2019-02-23T00:36:03.772Z,2.40
2019-02-23T00:38:33.731Z,2.40
2019-02-23T00:41:03.548Z,2.40
2019-02-23T00:43:33.357Z,2.40
2019-02-23T00:46:03.341Z,2.30
2019-02-23T00:48:33.214Z,2.30
2019-02-23T00:51:03.179Z,2.20
2019-02-23T00:53:33.011Z,2.20
2019-02-23T00:56:02.821Z,2.10
2019-02-23T00:58:32.491Z,2.10
2019-02-23T01:01:02.245Z,2.10
2019-02-23T01:03:32.151Z,2.10
2019-02-23T01:06:02.171Z,2.10
2019-02-23T01:08:32.184Z,2.00
2019-02-23T01:11:01.923Z,2.00
2019-02-23T01:13:31.563Z,2.00
2019-02-23T01:16:01.527Z,2.00
2019-02-23T01:18:31.353Z,1.90
2019-02-23T01:21:01.123Z,1.90
2019-02-23T01:23:30.823Z,1.90
2019-02-23T01:26:00.572Z,1.90
2019-02-23T01:28:30.456Z,1.80
2019-02-23T01:31:00.404Z,1.80
2019-02-23T01:33:30.316Z,1.80
2019-02-23T01:36:00.095Z,1.80
2019-02-23T01:38:30.024Z,1.70
2019-02-23T01:40:59.871Z,1.70
2019-02-23T01:43:29.736Z,1.70
2019-02-23T01:45:59.472Z,1.60
2019-02-23T01:48:29.296Z,1.60
2019-02-23T01:50:59.187Z,1.60
2019-02-23T01:53:29.099Z,1.60
2019-02-23T01:55:58.863Z,1.60
2019-02-23T01:58:28.715Z,1.60
2019-02-23T02:00:58.736Z,1.50
2019-02-23T02:03:29.624Z,1.40
2019-02-23T02:05:59.491Z,1.40
2019-02-23T02:08:29.323Z,1.30
2019-02-23T02:10:59.111Z,1.30
2019-02-23T02:13:28.925Z,1.30
2019-02-23T02:15:58.975Z,1.30
2019-02-23T02:18:28.831Z,1.30
2019-02-23T02:20:58.596Z,1.30
2019-02-23T02:23:28.276Z,1.30
2019-02-23T02:25:58.004Z,1.30
2019-02-23T02:28:27.927Z,1.20
2019-02-23T02:30:57.847Z,1.20
2019-02-23T02:33:27.512Z,1.20
2019-02-23T02:35:57.276Z,1.20
2019-02-23T02:38:26.934Z,1.20
2019-02-23T02:40:56.860Z,1.10
2019-02-23T02:43:26.604Z,1.10
2019-02-23T02:45:56.496Z,1.10
2019-02-23T02:48:26.208Z,1.10
2019-02-23T02:50:56.063Z,1.00
2019-02-23T02:53:27.181Z,1.00
2019-02-23T02:55:56.956Z,1.00
2019-02-23T02:58:26.711Z,1.00
2019-02-23T03:00:56.613Z,0.90
2019-02-23T03:03:26.512Z,0.90
2019-02-23T03:05:56.228Z,0.90
2019-02-23T03:08:28.477Z,0.90
2019-02-23T03:10:58.363Z,0.90
2019-02-23T03:13:28.040Z,0.90
2019-02-23T03:15:57.716Z,0.90
2019-02-23T03:18:27.463Z,0.90
2019-02-23T03:20:57.491Z,0.90
2019-02-23T03:23:27.263Z,0.90
2019-02-23T03:25:57.129Z,0.90
2019-02-23T03:28:26.909Z,0.80
2019-02-23T03:30:56.717Z,0.80
2019-02-23T03:33:26.544Z,0.80
2019-02-23T03:35:56.420Z,0.80
2019-02-23T03:38:26.569Z,0.70
2019-02-23T03:40:56.468Z,0.70
2019-02-23T03:43:26.191Z,0.70
2019-02-23T03:45:55.878Z,0.70
2019-02-23T03:48:25.797Z,0.70
2019-02-23T03:50:55.542Z,0.60
2019-02-23T03:53:25.415Z,0.60
2019-02-23T03:55:55.257Z,0.60
2019-02-23T03:58:25.275Z,0.60
2019-02-23T04:00:54.942Z,0.50
2019-02-23T04:03:24.704Z,0.50
2019-02-23T04:05:56.127Z,0.50
2019-02-23T04:08:25.751Z,0.50
2019-02-23T04:10:55.439Z,0.50
2019-02-23T04:13:25.349Z,0.30
2019-02-23T04:15:55.187Z,0.30
2019-02-23T04:18:25.003Z,0.20
2019-02-23T04:21:01.764Z,0.20
2019-02-23T04:23:26.265Z,0.20
2019-02-23T04:25:55.972Z,0.20
2019-02-23T04:28:25.687Z,0.20
2019-02-23T04:30:55.706Z,0.20
2019-02-23T04:33:25.496Z,0.20
2019-02-23T04:35:55.240Z,0.20
2019-02-23T04:38:25.115Z,0.20
2019-02-23T04:40:54.958Z,0.20
2019-02-23T04:43:25.760Z,0.20
2019-02-23T04:45:55.571Z,0.20
2019-02-23T04:48:25.317Z,0.20
2019-02-23T04:50:54.991Z,0.20
2019-02-23T04:53:24.708Z,0.20
2019-02-23T04:55:54.516Z,0.20
2019-02-23T04:58:24.147Z,0.20
2019-02-23T05:00:54.027Z,0.20
2019-02-23T05:03:24.120Z,0.20
2019-02-23T05:05:53.694Z,0.20
2019-02-23T05:08:23.379Z,0.20
2019-02-23T05:10:53.139Z,0.20
2019-02-23T05:13:23.019Z,0.10
2019-02-23T05:15:52.589Z,0.10
2019-02-23T05:18:22.184Z,0.10
2019-02-23T05:20:51.846Z,0.10
2019-02-23T05:23:21.476Z,0.10
2019-02-23T05:25:51.816Z,0.10
2019-02-23T05:28:21.452Z,0.00
2019-02-23T05:30:51.231Z,0.00
2019-02-23T05:33:20.897Z,0.00
2019-02-23T05:35:50.630Z,-0.10
2019-02-23T05:38:20.326Z,-0.10
2019-02-23T05:40:50.024Z,0.00
2019-02-23T05:43:19.699Z,-0.10
2019-02-23T05:45:49.476Z,-0.10
2019-02-23T05:48:22.550Z,-0.10
2019-02-23T05:50:52.567Z,-0.10
2019-02-23T05:53:22.481Z,-0.10
2019-02-23T05:55:52.388Z,-0.10
2019-02-23T05:58:22.334Z,-0.20
2019-02-23T06:00:52.024Z,-0.20
2019-02-23T06:03:22.824Z,-0.20
2019-02-23T06:05:52.488Z,-0.20
2019-02-23T06:08:22.200Z,-0.30
2019-02-23T06:10:52.092Z,-0.30
2019-02-23T06:13:22.105Z,-0.30
2019-02-23T06:15:52.121Z,-0.30
2019-02-23T06:18:21.842Z,-0.30
2019-02-23T06:20:51.748Z,-0.30
2019-02-23T06:23:21.400Z,-0.30
2019-02-23T06:25:51.192Z,-0.30
2019-02-23T06:28:20.854Z,-0.30
2019-02-23T06:30:50.451Z,-0.30
2019-02-23T06:33:20.064Z,-0.20
2019-02-23T06:35:49.935Z,-0.20
2019-02-23T06:38:19.537Z,-0.20
2019-02-23T06:40:50.304Z,-0.20
2019-02-23T06:43:19.989Z,-0.10
2019-02-23T06:45:52.052Z,-0.10
2019-02-23T06:48:21.652Z,-0.10
2019-02-23T06:50:51.257Z,0.00
2019-02-23T06:53:22.673Z,0.00
2019-02-23T06:55:52.271Z,0.00
2019-02-23T06:58:21.871Z,0.10
2019-02-23T07:00:51.467Z,0.10
2019-02-23T07:03:21.113Z,0.10
2019-02-23T07:05:50.956Z,0.10
2019-02-23T07:08:20.519Z,0.10
2019-02-23T07:10:50.157Z,0.10
2019-02-23T07:13:19.739Z,0.20
2019-02-23T07:15:49.317Z,0.20
2019-02-23T07:18:19.182Z,0.30
2019-02-23T07:20:49.465Z,0.30
2019-02-23T07:23:19.037Z,0.30
2019-02-23T07:25:48.651Z,0.40
2019-02-23T07:28:18.239Z,0.40
2019-02-23T07:30:47.826Z,0.40
2019-02-23T07:33:31.916Z,0.50
2019-02-23T07:35:49.808Z,0.50
2019-02-23T07:38:19.429Z,0.50
2019-02-23T07:40:49.016Z,0.50
2019-02-23T07:43:18.623Z,0.60
2019-02-23T07:45:48.220Z,0.60
2019-02-23T07:48:17.800Z,0.60
2019-02-23T07:50:47.442Z,0.60
2019-02-23T07:53:17.048Z,0.60
2019-02-23T07:56:05.717Z,0.60
2019-02-23T07:58:35.540Z,0.60
2019-02-23T08:01:05.131Z,0.70
2019-02-23T08:03:34.720Z,0.70
2019-02-23T08:06:04.313Z,0.70
2019-02-23T08:08:33.932Z,0.70
2019-02-23T08:11:03.562Z,0.70
2019-02-23T08:13:33.158Z,0.80
2019-02-23T08:16:02.987Z,0.80
2019-02-23T08:18:32.978Z,0.90
2019-02-23T08:21:02.719Z,1.00
2019-02-23T08:23:32.295Z,1.00
2019-02-23T08:26:01.866Z,1.00
2019-02-23T08:28:31.484Z,1.10
2019-02-23T08:31:01.352Z,1.10
2019-02-23T08:33:31.040Z,1.20
2019-02-23T08:36:00.788Z,1.30
2019-02-23T08:38:31.603Z,1.40
2019-02-23T08:41:01.188Z,1.40
2019-02-23T08:43:30.792Z,1.50
2019-02-23T08:46:00.375Z,1.50
2019-02-23T08:48:29.967Z,1.60
2019-02-23T08:50:59.238Z,1.60
2019-02-23T08:53:28.800Z,1.60
2019-02-23T08:55:58.429Z,1.60
2019-02-23T08:58:28.004Z,1.60
2019-02-23T09:00:57.935Z,1.60
2019-02-23T09:03:27.687Z,1.90
2019-02-23T09:05:57.259Z,2.10
2019-02-23T09:08:26.830Z,2.30
2019-02-23T09:10:56.426Z,2.30
2019-02-23T09:13:26.033Z,2.40
2019-02-23T09:15:57.343Z,2.40
2019-02-23T09:18:27.190Z,2.40
2019-02-23T09:20:56.859Z,2.40
2019-02-23T09:23:26.551Z,2.40
2019-02-23T09:25:57.856Z,2.50
2019-02-23T09:28:27.747Z,2.70
2019-02-23T09:30:57.579Z,3.00
2019-02-23T09:33:27.220Z,3.20
2019-02-23T09:35:56.822Z,3.30
2019-02-23T09:38:26.424Z,3.30
2019-02-23T09:40:56.013Z,3.30
2019-02-23T09:43:25.619Z,3.20
2019-02-23T09:45:55.191Z,3.30
2019-02-23T09:48:24.778Z,3.40
2019-02-23T09:50:54.391Z,3.50
2019-02-23T09:53:23.980Z,3.50
2019-02-23T09:55:53.601Z,3.50
2019-02-23T09:58:23.192Z,3.50
2019-02-23T10:00:52.776Z,3.60
2019-02-23T10:03:22.383Z,3.70
2019-02-23T10:05:51.975Z,3.80
2019-02-23T10:08:21.559Z,3.80
2019-02-23T10:10:51.171Z,3.80
2019-02-23T10:13:20.757Z,3.80
2019-02-23T10:15:50.412Z,3.80
2019-02-23T10:18:20.033Z,3.80
2019-02-23T10:20:49.654Z,3.80
2019-02-23T10:23:22.035Z,3.90
2019-02-23T10:25:50.659Z,3.90
2019-02-23T10:28:20.615Z,3.90
2019-02-23T10:30:50.512Z,4.00
2019-02-23T10:33:20.407Z,4.00
2019-02-23T10:35:50.100Z,4.10
2019-02-23T10:38:19.856Z,4.20
2019-02-23T10:40:51.343Z,4.40
2019-02-23T10:43:20.936Z,4.50
2019-02-23T10:45:50.828Z,4.50
2019-02-23T10:48:20.692Z,4.50
2019-02-23T10:50:50.531Z,4.70
2019-02-23T10:53:20.126Z,4.80
2019-02-23T10:55:49.766Z,4.90
2019-02-23T10:58:19.335Z,4.90
2019-02-23T11:00:48.974Z,5.00
2019-02-23T11:03:18.580Z,5.20
2019-02-23T11:05:48.279Z,5.30
2019-02-23T11:08:17.887Z,5.40
2019-02-23T11:10:47.521Z,5.60
2019-02-23T11:13:17.152Z,5.70
2019-02-23T11:15:46.784Z,5.80
2019-02-23T11:18:16.524Z,5.90
2019-02-23T11:20:46.150Z,6.00
2019-02-23T11:23:15.793Z,6.10
2019-02-23T11:25:45.435Z,6.10
2019-02-23T11:28:15.355Z,6.20
2019-02-23T11:30:45.396Z,6.40
2019-02-23T11:33:14.991Z,6.60
2019-02-23T11:35:44.570Z,6.80
2019-02-23T11:38:14.289Z,6.90
2019-02-23T11:40:43.888Z,7.00
2019-02-23T11:43:13.455Z,7.20
2019-02-23T11:45:43.433Z,7.20
2019-02-23T11:48:14.723Z,7.00
2019-02-23T11:50:44.693Z,6.80
2019-02-23T11:53:14.475Z,6.50
2019-02-23T11:55:44.122Z,6.40
2019-02-23T11:58:14.047Z,6.40
2019-02-23T12:00:45.854Z,6.50
2019-02-23T12:03:15.179Z,6.50
2019-02-23T12:05:44.983Z,6.50
2019-02-23T12:08:14.939Z,6.50
2019-02-23T12:10:44.738Z,6.50
2019-02-23T12:13:14.299Z,6.60
2019-02-23T12:15:44.270Z,6.60
2019-02-23T12:18:13.951Z,6.70
2019-02-23T12:20:43.548Z,6.80
2019-02-23T12:23:13.397Z,6.70
2019-02-23T12:25:43.155Z,6.80
2019-02-23T12:28:12.987Z,6.90
2019-02-23T12:30:42.695Z,6.90
2019-02-23T12:33:12.683Z,7.10
2019-02-23T12:35:42.697Z,7.20
2019-02-23T12:38:12.466Z,7.30
2019-02-23T12:40:42.051Z,7.30
2019-02-23T12:43:13.986Z,7.40
2019-02-23T12:45:44.009Z,7.50
2019-02-23T12:48:13.585Z,7.50
2019-02-23T12:50:43.236Z,7.50
2019-02-23T12:53:12.841Z,7.50
2019-02-23T12:55:42.611Z,7.50
2019-02-23T12:58:12.379Z,7.60
2019-02-23T13:00:42.047Z,7.50
2019-02-23T13:03:11.891Z,7.50
2019-02-23T13:05:41.703Z,7.60
2019-02-23T13:08:11.404Z,7.60
2019-02-23T13:10:41.335Z,7.70
2019-02-23T13:13:46.659Z,7.90
2019-02-23T13:16:38.071Z,8.00
2019-02-23T13:19:58.052Z,8.20
2019-02-23T13:22:56.639Z,8.40
2019-02-23T13:26:03.943Z,8.20
2019-02-23T13:53:34.362Z,8.60
2019-02-23T13:56:40.822Z,8.80
2019-02-23T14:00:00.487Z,8.70
2019-02-23T14:03:10.211Z,8.90
2019-02-23T14:06:20.443Z,9.00
2019-02-23T14:09:45.496Z,9.00
2019-02-23T14:12:50.474Z,9.10
2019-02-23T14:16:03.152Z,9.30
2019-02-23T14:19:18.283Z,9.30
2019-02-23T14:22:01.772Z,9.40
2019-02-23T14:25:06.043Z,9.40
2019-02-23T14:28:20.954Z,9.40
2019-02-23T14:31:50.334Z,9.20
2019-02-23T14:34:46.557Z,9.40
2019-02-23T14:37:42.327Z,9.20
2019-02-23T14:40:39.663Z,9.30
2019-02-23T14:43:31.851Z,9.40
2019-02-23T14:46:24.201Z,9.30
2019-02-23T14:49:22.948Z,9.00
2019-02-23T14:52:42.481Z,8.70
2019-02-23T14:55:40.332Z,8.30
2019-02-23T14:58:58.427Z,8.00
2019-02-23T15:01:49.794Z,8.00
2019-02-23T15:04:47.944Z,8.10
2019-02-23T15:08:10.331Z,8.60
2019-02-23T15:11:22.514Z,8.90
2019-02-23T15:14:22.662Z,9.30
2019-02-23T15:17:25.243Z,9.90
2019-02-23T15:20:50.882Z,10.50
2019-02-23T15:23:56.267Z,11.00
2019-02-23T15:27:09.300Z,11.10
2019-02-23T15:30:00.924Z,11.50
2019-02-23T15:33:10.844Z,11.00
2019-02-23T15:36:20.360Z,10.70
2019-02-23T15:39:43.372Z,10.90
2019-02-23T15:42:49.589Z,11.10
2019-02-23T15:46:15.675Z,11.30
2019-02-23T15:49:29.553Z,10.80
2019-02-23T15:51:59.838Z,9.80
2019-02-23T15:54:29.652Z,8.90
2019-02-23T15:56:59.461Z,8.30
2019-02-23T15:59:29.330Z,7.90
2019-02-23T16:01:58.989Z,7.50
2019-02-23T16:04:28.718Z,7.10
2019-02-23T16:06:59.948Z,6.70
2019-02-23T16:09:29.607Z,6.40
2019-02-23T16:11:59.337Z,6.10
2019-02-23T16:14:29.058Z,5.90
2019-02-23T16:16:58.732Z,5.60
2019-02-23T16:19:28.358Z,5.50
2019-02-23T16:21:58.037Z,5.30
2019-02-23T16:24:27.767Z,5.10
2019-02-23T16:26:57.456Z,5.00
2019-02-23T16:29:27.173Z,4.90
2019-02-23T16:31:56.931Z,4.80
2019-02-23T16:34:26.575Z,4.80
2019-02-23T16:36:56.365Z,4.70
2019-02-23T16:39:26.112Z,4.60
2019-02-23T16:41:58.828Z,4.60
2019-02-23T16:44:28.518Z,4.50
2019-02-23T16:46:58.315Z,4.40
2019-02-23T16:49:28.060Z,4.40
2019-02-23T16:51:57.639Z,4.30
2019-02-23T16:54:27.392Z,4.20
2019-02-23T16:56:57.112Z,4.20
2019-02-23T16:59:27.016Z,4.10
2019-02-23T17:01:56.827Z,4.10
2019-02-23T17:04:26.575Z,4.10
2019-02-23T17:06:56.335Z,4.10
2019-02-23T17:09:26.078Z,4.10
2019-02-23T17:11:55.730Z,4.00
2019-02-23T17:14:25.441Z,4.00
2019-02-23T17:16:58.044Z,3.90
2019-02-23T17:19:32.701Z,3.90
2019-02-23T17:22:03.480Z,3.80
2019-02-23T17:24:33.088Z,3.80
2019-02-23T17:27:02.831Z,3.70
2019-02-23T17:29:32.499Z,3.60
2019-02-23T17:32:03.139Z,3.60
2019-02-23T17:34:32.871Z,3.50
2019-02-23T17:37:02.536Z,3.50
